sensor_id;sensor_type;location;lat;lon;timestamp;P1;durP1;ratioP1;P2;durP2;ratioP2
56201;SDS011;42117;50.360;3.508;2022-10-15T00:01:43;10.77;;;4.78;;
56201;SDS011;42117;50.360;3.508;2022-10-15T00:04:09;9.85;;;4.60;;
56201;SDS011;42117;50.360;3.508;2022-10-15T00:06:35;9.05;;;3.70;;
56201;SDS011;42117;50.360;3.508;2022-10-15T00:09:01;2.78;;;1.58;;
56201;SDS011;42117;50.360;3.508;2022-10-15T00:11:27;7.93;;;4.47;;
56201;SDS011;42117;50.360;3.508;2022-10-15T00:13:54;9.07;;;5.57;;
56201;SDS011;42117;50.360;3.508;2022-10-15T00:16:22;8.90;;;5.63;;
56201;SDS011;42117;50.360;3.508;2022-10-15T00:18:49;7.18;;;4.68;;
56201;SDS011;42117;50.360;3.508;2022-10-15T00:21:16;6.60;;;3.20;;
56201;SDS011;42117;50.360;3.508;2022-10-15T00:23:42;6.30;;;4.07;;
56201;SDS011;42117;50.360;3.508;2022-10-15T00:26:13;11.77;;;5.13;;
56201;SDS011;42117;50.360;3.508;2022-10-15T00:28:39;6.47;;;3.65;;
56201;SDS011;42117;50.360;3.508;2022-10-15T00:31:07;6.00;;;4.35;;
56201;SDS011;42117;50.360;3.508;2022-10-15T00:33:33;8.05;;;4.57;;
56201;SDS011;42117;50.360;3.508;2022-10-15T00:36:00;11.80;;;5.75;;
56201;SDS011;42117;50.360;3.508;2022-10-15T00:38:26;8.07;;;4.55;;
56201;SDS011;42117;50.360;3.508;2022-10-15T00:40:52;5.90;;;4.20;;
56201;SDS011;42117;50.360;3.508;2022-10-15T00:43:34;9.50;;;4.10;;
56201;SDS011;42117;50.360;3.508;2022-10-15T00:46:00;7.30;;;4.05;;
56201;SDS011;42117;50.360;3.508;2022-10-15T00:48:27;8.48;;;4.60;;
56201;SDS011;42117;50.360;3.508;2022-10-15T00:50:55;9.85;;;4.57;;
56201;SDS011;42117;50.360;3.508;2022-10-15T00:53:21;10.40;;;5.45;;
56201;SDS011;42117;50.360;3.508;2022-10-15T00:55:47;8.80;;;4.95;;
56201;SDS011;42117;50.360;3.508;2022-10-15T00:58:17;9.27;;;4.90;;
56201;SDS011;42117;50.360;3.508;2022-10-15T01:00:51;11.90;;;4.97;;
56201;SDS011;42117;50.360;3.508;2022-10-15T01:03:17;8.82;;;5.25;;
56201;SDS011;42117;50.360;3.508;2022-10-15T01:05:43;12.43;;;5.68;;
56201;SDS011;42117;50.360;3.508;2022-10-15T01:08:12;12.70;;;6.18;;
56201;SDS011;42117;50.360;3.508;2022-10-15T01:10:43;17.50;;;6.25;;
56201;SDS011;42117;50.360;3.508;2022-10-15T01:13:14;10.85;;;6.15;;
56201;SDS011;42117;50.360;3.508;2022-10-15T01:15:44;10.45;;;4.68;;
56201;SDS011;42117;50.360;3.508;2022-10-15T01:18:17;11.47;;;4.70;;
56201;SDS011;42117;50.360;3.508;2022-10-15T01:26:06;9.63;;;5.28;;
56201;SDS011;42117;50.360;3.508;2022-10-15T01:31:29;9.07;;;4.82;;
56201;SDS011;42117;50.360;3.508;2022-10-15T01:34:00;9.32;;;5.10;;
56201;SDS011;42117;50.360;3.508;2022-10-15T01:36:31;9.60;;;4.75;;
56201;SDS011;42117;50.360;3.508;2022-10-15T01:39:03;20.52;;;5.78;;
56201;SDS011;42117;50.360;3.508;2022-10-15T01:41:35;12.68;;;6.03;;
56201;SDS011;42117;50.360;3.508;2022-10-15T01:44:17;10.77;;;5.47;;
56201;SDS011;42117;50.360;3.508;2022-10-15T01:49:10;8.73;;;4.60;;
56201;SDS011;42117;50.360;3.508;2022-10-15T01:51:37;8.30;;;5.00;;
56201;SDS011;42117;50.360;3.508;2022-10-15T01:54:04;13.15;;;5.63;;
56201;SDS011;42117;50.360;3.508;2022-10-15T01:56:31;8.15;;;4.40;;
56201;SDS011;42117;50.360;3.508;2022-10-15T01:58:58;11.40;;;3.63;;
56201;SDS011;42117;50.360;3.508;2022-10-15T02:01:25;11.63;;;5.22;;
56201;SDS011;42117;50.360;3.508;2022-10-15T02:03:51;11.10;;;5.05;;
56201;SDS011;42117;50.360;3.508;2022-10-15T02:06:25;8.30;;;5.10;;
56201;SDS011;42117;50.360;3.508;2022-10-15T02:09:04;12.90;;;5.50;;
56201;SDS011;42117;50.360;3.508;2022-10-15T02:11:35;12.63;;;5.50;;
56201;SDS011;42117;50.360;3.508;2022-10-15T02:24:36;10.48;;;5.38;;
56201;SDS011;42117;50.360;3.508;2022-10-15T02:27:05;11.82;;;4.68;;
56201;SDS011;42117;50.360;3.508;2022-10-15T02:29:32;9.32;;;4.82;;
56201;SDS011;42117;50.360;3.508;2022-10-15T02:31:59;8.50;;;3.65;;
56201;SDS011;42117;50.360;3.508;2022-10-15T02:34:26;9.93;;;5.20;;
56201;SDS011;42117;50.360;3.508;2022-10-15T02:36:53;10.13;;;5.15;;
56201;SDS011;42117;50.360;3.508;2022-10-15T02:39:20;11.07;;;4.10;;
56201;SDS011;42117;50.360;3.508;2022-10-15T02:41:48;9.57;;;5.43;;
56201;SDS011;42117;50.360;3.508;2022-10-15T02:44:14;6.75;;;4.03;;
56201;SDS011;42117;50.360;3.508;2022-10-15T02:46:40;9.48;;;4.20;;
56201;SDS011;42117;50.360;3.508;2022-10-15T02:49:06;8.60;;;4.57;;
56201;SDS011;42117;50.360;3.508;2022-10-15T02:51:33;11.18;;;5.43;;
56201;SDS011;42117;50.360;3.508;2022-10-15T02:53:59;12.02;;;4.88;;
56201;SDS011;42117;50.360;3.508;2022-10-15T02:56:26;9.32;;;3.83;;
56201;SDS011;42117;50.360;3.508;2022-10-15T02:58:52;8.10;;;4.93;;
56201;SDS011;42117;50.360;3.508;2022-10-15T03:01:18;9.73;;;4.20;;
56201;SDS011;42117;50.360;3.508;2022-10-15T03:03:44;8.07;;;4.40;;
56201;SDS011;42117;50.360;3.508;2022-10-15T03:06:10;8.45;;;4.53;;
56201;SDS011;42117;50.360;3.508;2022-10-15T03:08:36;4.88;;;3.33;;
56201;SDS011;42117;50.360;3.508;2022-10-15T03:11:02;6.15;;;3.55;;
56201;SDS011;42117;50.360;3.508;2022-10-15T03:13:28;8.00;;;4.63;;
56201;SDS011;42117;50.360;3.508;2022-10-15T03:15:54;8.68;;;4.65;;
56201;SDS011;42117;50.360;3.508;2022-10-15T03:18:21;9.13;;;4.78;;
56201;SDS011;42117;50.360;3.508;2022-10-15T03:20:53;8.10;;;3.85;;
56201;SDS011;42117;50.360;3.508;2022-10-15T03:23:20;10.48;;;4.32;;
56201;SDS011;42117;50.360;3.508;2022-10-15T03:25:46;7.80;;;4.03;;
56201;SDS011;42117;50.360;3.508;2022-10-15T03:28:12;10.43;;;5.20;;
56201;SDS011;42117;50.360;3.508;2022-10-15T03:30:38;9.10;;;4.38;;
56201;SDS011;42117;50.360;3.508;2022-10-15T03:33:04;10.95;;;4.28;;
56201;SDS011;42117;50.360;3.508;2022-10-15T03:35:30;8.48;;;4.70;;
56201;SDS011;42117;50.360;3.508;2022-10-15T03:37:56;12.45;;;4.68;;
56201;SDS011;42117;50.360;3.508;2022-10-15T03:40:22;17.13;;;5.75;;
56201;SDS011;42117;50.360;3.508;2022-10-15T03:42:51;13.10;;;5.10;;
56201;SDS011;42117;50.360;3.508;2022-10-15T03:45:17;15.60;;;5.90;;
56201;SDS011;42117;50.360;3.508;2022-10-15T03:47:44;12.55;;;5.13;;
56201;SDS011;42117;50.360;3.508;2022-10-15T03:50:10;10.18;;;5.25;;
56201;SDS011;42117;50.360;3.508;2022-10-15T03:52:37;14.32;;;6.13;;
56201;SDS011;42117;50.360;3.508;2022-10-15T03:55:03;16.80;;;6.22;;
56201;SDS011;42117;50.360;3.508;2022-10-15T03:57:30;13.82;;;6.00;;
56201;SDS011;42117;50.360;3.508;2022-10-15T03:59:56;10.85;;;5.45;;
56201;SDS011;42117;50.360;3.508;2022-10-15T04:02:22;14.10;;;6.53;;
56201;SDS011;42117;50.360;3.508;2022-10-15T04:04:52;14.35;;;5.93;;
56201;SDS011;42117;50.360;3.508;2022-10-15T04:07:18;12.82;;;5.78;;
56201;SDS011;42117;50.360;3.508;2022-10-15T04:09:45;13.70;;;5.70;;
56201;SDS011;42117;50.360;3.508;2022-10-15T04:12:11;11.07;;;5.30;;
56201;SDS011;42117;50.360;3.508;2022-10-15T04:14:37;13.98;;;5.90;;
56201;SDS011;42117;50.360;3.508;2022-10-15T04:17:03;10.25;;;5.38;;
56201;SDS011;42117;50.360;3.508;2022-10-15T04:19:29;13.18;;;6.15;;
56201;SDS011;42117;50.360;3.508;2022-10-15T04:21:55;10.60;;;5.38;;
56201;SDS011;42117;50.360;3.508;2022-10-15T04:24:21;12.38;;;6.75;;
56201;SDS011;42117;50.360;3.508;2022-10-15T04:26:47;12.90;;;5.45;;
56201;SDS011;42117;50.360;3.508;2022-10-15T04:29:13;11.45;;;5.22;;
56201;SDS011;42117;50.360;3.508;2022-10-15T04:31:40;13.20;;;6.13;;
56201;SDS011;42117;50.360;3.508;2022-10-15T04:34:06;17.67;;;5.43;;
56201;SDS011;42117;50.360;3.508;2022-10-15T04:36:32;13.52;;;6.25;;
56201;SDS011;42117;50.360;3.508;2022-10-15T04:38:58;11.93;;;5.57;;
56201;SDS011;42117;50.360;3.508;2022-10-15T04:41:25;13.73;;;5.10;;
56201;SDS011;42117;50.360;3.508;2022-10-15T04:43:51;13.93;;;5.85;;
56201;SDS011;42117;50.360;3.508;2022-10-15T04:46:17;13.23;;;6.13;;
56201;SDS011;42117;50.360;3.508;2022-10-15T04:48:46;11.67;;;4.93;;
56201;SDS011;42117;50.360;3.508;2022-10-15T04:51:14;11.90;;;6.03;;
56201;SDS011;42117;50.360;3.508;2022-10-15T04:53:40;10.50;;;5.60;;
56201;SDS011;42117;50.360;3.508;2022-10-15T04:56:07;16.55;;;6.32;;
56201;SDS011;42117;50.360;3.508;2022-10-15T04:58:35;11.30;;;5.55;;
56201;SDS011;42117;50.360;3.508;2022-10-15T05:01:03;10.88;;;5.18;;
56201;SDS011;42117;50.360;3.508;2022-10-15T05:03:29;10.27;;;5.88;;
56201;SDS011;42117;50.360;3.508;2022-10-15T05:06:14;10.85;;;5.65;;
56201;SDS011;42117;50.360;3.508;2022-10-15T05:08:41;14.25;;;5.90;;
56201;SDS011;42117;50.360;3.508;2022-10-15T05:11:11;10.65;;;5.80;;
56201;SDS011;42117;50.360;3.508;2022-10-15T05:13:38;15.80;;;5.88;;
56201;SDS011;42117;50.360;3.508;2022-10-15T05:16:17;11.70;;;5.57;;
56201;SDS011;42117;50.360;3.508;2022-10-15T05:18:45;8.00;;;4.82;;
56201;SDS011;42117;50.360;3.508;2022-10-15T05:21:11;12.38;;;6.47;;
56201;SDS011;42117;50.360;3.508;2022-10-15T05:23:37;14.13;;;6.43;;
56201;SDS011;42117;50.360;3.508;2022-10-15T05:26:04;13.82;;;6.35;;
56201;SDS011;42117;50.360;3.508;2022-10-15T05:28:31;15.52;;;6.75;;
56201;SDS011;42117;50.360;3.508;2022-10-15T05:31:02;13.27;;;6.43;;
56201;SDS011;42117;50.360;3.508;2022-10-15T05:33:28;14.13;;;5.57;;
56201;SDS011;42117;50.360;3.508;2022-10-15T05:35:54;12.05;;;6.32;;
56201;SDS011;42117;50.360;3.508;2022-10-15T05:38:20;14.82;;;5.72;;
56201;SDS011;42117;50.360;3.508;2022-10-15T05:40:47;9.27;;;5.43;;
56201;SDS011;42117;50.360;3.508;2022-10-15T05:43:13;15.15;;;6.15;;
56201;SDS011;42117;50.360;3.508;2022-10-15T05:45:39;8.35;;;4.30;;
56201;SDS011;42117;50.360;3.508;2022-10-15T05:48:05;9.45;;;4.72;;
56201;SDS011;42117;50.360;3.508;2022-10-15T05:50:31;8.25;;;4.20;;
56201;SDS011;42117;50.360;3.508;2022-10-15T05:52:57;9.10;;;4.65;;
56201;SDS011;42117;50.360;3.508;2022-10-15T05:55:23;8.27;;;3.83;;
56201;SDS011;42117;50.360;3.508;2022-10-15T05:57:49;8.45;;;4.05;;
56201;SDS011;42117;50.360;3.508;2022-10-15T06:00:15;8.70;;;3.40;;
56201;SDS011;42117;50.360;3.508;2022-10-15T06:02:41;8.95;;;4.50;;
56201;SDS011;42117;50.360;3.508;2022-10-15T06:05:07;7.32;;;3.63;;
56201;SDS011;42117;50.360;3.508;2022-10-15T06:07:33;7.65;;;3.53;;
56201;SDS011;42117;50.360;3.508;2022-10-15T06:09:59;6.43;;;2.72;;
56201;SDS011;42117;50.360;3.508;2022-10-15T06:12:26;5.88;;;3.22;;
56201;SDS011;42117;50.360;3.508;2022-10-15T06:14:51;8.27;;;3.67;;
56201;SDS011;42117;50.360;3.508;2022-10-15T06:17:18;3.85;;;2.63;;
56201;SDS011;42117;50.360;3.508;2022-10-15T06:19:44;5.03;;;3.15;;
56201;SDS011;42117;50.360;3.508;2022-10-15T06:22:10;8.63;;;3.20;;
56201;SDS011;42117;50.360;3.508;2022-10-15T06:24:36;6.57;;;2.97;;
56201;SDS011;42117;50.360;3.508;2022-10-15T06:27:01;4.63;;;2.97;;
56201;SDS011;42117;50.360;3.508;2022-10-15T06:29:27;4.28;;;2.53;;
56201;SDS011;42117;50.360;3.508;2022-10-15T06:31:54;6.47;;;3.03;;
56201;SDS011;42117;50.360;3.508;2022-10-15T06:34:20;5.20;;;2.80;;
56201;SDS011;42117;50.360;3.508;2022-10-15T06:36:46;3.75;;;2.88;;
56201;SDS011;42117;50.360;3.508;2022-10-15T06:39:12;4.25;;;2.65;;
56201;SDS011;42117;50.360;3.508;2022-10-15T06:41:38;3.05;;;2.03;;
56201;SDS011;42117;50.360;3.508;2022-10-15T06:44:04;3.65;;;1.58;;
56201;SDS011;42117;50.360;3.508;2022-10-15T06:46:30;2.15;;;1.95;;
56201;SDS011;42117;50.360;3.508;2022-10-15T06:48:56;2.15;;;1.75;;
56201;SDS011;42117;50.360;3.508;2022-10-15T06:51:22;2.47;;;2.28;;
56201;SDS011;42117;50.360;3.508;2022-10-15T06:53:48;1.52;;;1.42;;
56201;SDS011;42117;50.360;3.508;2022-10-15T06:56:14;3.42;;;2.08;;
56201;SDS011;42117;50.360;3.508;2022-10-15T06:58:40;3.17;;;2.25;;
56201;SDS011;42117;50.360;3.508;2022-10-15T07:01:07;2.22;;;1.45;;
56201;SDS011;42117;50.360;3.508;2022-10-15T07:03:34;1.80;;;1.60;;
56201;SDS011;42117;50.360;3.508;2022-10-15T07:06:04;3.80;;;1.88;;
56201;SDS011;42117;50.360;3.508;2022-10-15T07:08:30;0.82;;;0.82;;
56201;SDS011;42117;50.360;3.508;2022-10-15T07:10:57;1.13;;;1.00;;
56201;SDS011;42117;50.360;3.508;2022-10-15T07:13:23;1.50;;;1.17;;
56201;SDS011;42117;50.360;3.508;2022-10-15T07:15:49;1.10;;;1.05;;
56201;SDS011;42117;50.360;3.508;2022-10-15T07:18:18;1.40;;;1.30;;
56201;SDS011;42117;50.360;3.508;2022-10-15T07:20:44;1.13;;;1.05;;
56201;SDS011;42117;50.360;3.508;2022-10-15T07:23:10;0.93;;;0.85;;
56201;SDS011;42117;50.360;3.508;2022-10-15T07:25:36;1.13;;;0.80;;
56201;SDS011;42117;50.360;3.508;2022-10-15T07:28:03;0.70;;;0.70;;
56201;SDS011;42117;50.360;3.508;2022-10-15T07:30:29;1.25;;;1.02;;
56201;SDS011;42117;50.360;3.508;2022-10-15T07:32:55;2.25;;;0.47;;
56201;SDS011;42117;50.360;3.508;2022-10-15T07:35:22;0.30;;;0.30;;
56201;SDS011;42117;50.360;3.508;2022-10-15T07:37:48;0.60;;;0.60;;
56201;SDS011;42117;50.360;3.508;2022-10-15T07:40:15;0.95;;;0.95;;
56201;SDS011;42117;50.360;3.508;2022-10-15T07:42:41;3.35;;;1.10;;
56201;SDS011;42117;50.360;3.508;2022-10-15T07:45:07;1.17;;;0.77;;
56201;SDS011;42117;50.360;3.508;2022-10-15T07:47:33;0.52;;;0.52;;
56201;SDS011;42117;50.360;3.508;2022-10-15T07:49:59;0.28;;;0.28;;
56201;SDS011;42117;50.360;3.508;2022-10-15T07:52:25;1.45;;;0.85;;
56201;SDS011;42117;50.360;3.508;2022-10-15T07:54:51;0.80;;;0.73;;
56201;SDS011;42117;50.360;3.508;2022-10-15T07:57:17;0.60;;;0.60;;
56201;SDS011;42117;50.360;3.508;2022-10-15T07:59:43;2.13;;;0.70;;
56201;SDS011;42117;50.360;3.508;2022-10-15T08:02:16;0.50;;;0.50;;
56201;SDS011;42117;50.360;3.508;2022-10-15T08:04:42;0.85;;;0.68;;
56201;SDS011;42117;50.360;3.508;2022-10-15T08:07:08;0.77;;;0.60;;
56201;SDS011;42117;50.360;3.508;2022-10-15T08:09:34;0.93;;;0.68;;
56201;SDS011;42117;50.360;3.508;2022-10-15T08:12:00;0.68;;;0.68;;
56201;SDS011;42117;50.360;3.508;2022-10-15T08:14:27;2.38;;;1.00;;
56201;SDS011;42117;50.360;3.508;2022-10-15T08:16:53;3.28;;;1.20;;
56201;SDS011;42117;50.360;3.508;2022-10-15T08:19:18;2.53;;;1.38;;
56201;SDS011;42117;50.360;3.508;2022-10-15T08:21:45;3.13;;;1.52;;
56201;SDS011;42117;50.360;3.508;2022-10-15T08:24:11;3.00;;;1.27;;
56201;SDS011;42117;50.360;3.508;2022-10-15T08:26:37;2.45;;;1.75;;
56201;SDS011;42117;50.360;3.508;2022-10-15T08:29:03;2.65;;;1.63;;
56201;SDS011;42117;50.360;3.508;2022-10-15T08:31:29;0.95;;;0.95;;
56201;SDS011;42117;50.360;3.508;2022-10-15T08:33:58;1.33;;;1.15;;
56201;SDS011;42117;50.360;3.508;2022-10-15T08:36:24;1.02;;;1.00;;
56201;SDS011;42117;50.360;3.508;2022-10-15T08:38:50;1.23;;;0.60;;
56201;SDS011;42117;50.360;3.508;2022-10-15T08:43:45;1.85;;;0.70;;
56201;SDS011;42117;50.360;3.508;2022-10-15T08:46:14;1.25;;;0.93;;
56201;SDS011;42117;50.360;3.508;2022-10-15T08:48:45;0.75;;;0.73;;
56201;SDS011;42117;50.360;3.508;2022-10-15T08:51:25;1.88;;;0.90;;
56201;SDS011;42117;50.360;3.508;2022-10-15T08:53:56;1.45;;;1.17;;
56201;SDS011;42117;50.360;3.508;2022-10-15T08:58:56;0.40;;;0.40;;
56201;SDS011;42117;50.360;3.508;2022-10-15T09:01:35;1.23;;;0.55;;
56201;SDS011;42117;50.360;3.508;2022-10-15T09:06:33;0.55;;;0.40;;
56201;SDS011;42117;50.360;3.508;2022-10-15T09:11:43;0.40;;;0.40;;
56201;SDS011;42117;50.360;3.508;2022-10-15T09:14:14;0.60;;;0.60;;
56201;SDS011;42117;50.360;3.508;2022-10-15T09:16:41;0.50;;;0.50;;
56201;SDS011;42117;50.360;3.508;2022-10-15T09:19:14;0.45;;;0.45;;
56201;SDS011;42117;50.360;3.508;2022-10-15T09:21:41;0.75;;;0.75;;
56201;SDS011;42117;50.360;3.508;2022-10-15T09:24:18;0.40;;;0.40;;
56201;SDS011;42117;50.360;3.508;2022-10-15T09:29:36;0.82;;;0.80;;
56201;SDS011;42117;50.360;3.508;2022-10-15T09:32:12;0.52;;;0.50;;
56201;SDS011;42117;50.360;3.508;2022-10-15T09:34:42;0.25;;;0.25;;
56201;SDS011;42117;50.360;3.508;2022-10-15T09:37:17;0.43;;;0.43;;
56201;SDS011;42117;50.360;3.508;2022-10-15T09:42:36;0.38;;;0.38;;
56201;SDS011;42117;50.360;3.508;2022-10-15T09:45:10;0.50;;;0.50;;
56201;SDS011;42117;50.360;3.508;2022-10-15T09:47:38;0.60;;;0.60;;
56201;SDS011;42117;50.360;3.508;2022-10-15T09:50:05;1.98;;;0.85;;
56201;SDS011;42117;50.360;3.508;2022-10-15T09:57:30;0.40;;;0.40;;
56201;SDS011;42117;50.360;3.508;2022-10-15T09:59:58;0.50;;;0.50;;
56201;SDS011;42117;50.360;3.508;2022-10-15T10:02:25;0.30;;;0.30;;
56201;SDS011;42117;50.360;3.508;2022-10-15T10:04:52;0.45;;;0.45;;
56201;SDS011;42117;50.360;3.508;2022-10-15T10:07:28;0.50;;;0.50;;
56201;SDS011;42117;50.360;3.508;2022-10-15T10:09:55;0.50;;;0.50;;
56201;SDS011;42117;50.360;3.508;2022-10-15T10:12:24;0.30;;;0.30;;
56201;SDS011;42117;50.360;3.508;2022-10-15T10:14:55;0.22;;;0.22;;
56201;SDS011;42117;50.360;3.508;2022-10-15T10:17:22;0.52;;;0.38;;
56201;SDS011;42117;50.360;3.508;2022-10-15T10:22:51;0.30;;;0.30;;
56201;SDS011;42117;50.360;3.508;2022-10-15T10:30:36;0.40;;;0.35;;
56201;SDS011;42117;50.360;3.508;2022-10-15T10:33:03;0.30;;;0.30;;
56201;SDS011;42117;50.360;3.508;2022-10-15T10:35:34;0.30;;;0.30;;
56201;SDS011;42117;50.360;3.508;2022-10-15T10:38:01;0.75;;;0.75;;
56201;SDS011;42117;50.360;3.508;2022-10-15T10:40:28;8.57;;;0.98;;
56201;SDS011;42117;50.360;3.508;2022-10-15T10:43:37;0.75;;;0.75;;
56201;SDS011;42117;50.360;3.508;2022-10-15T10:46:08;1.02;;;0.32;;
56201;SDS011;42117;50.360;3.508;2022-10-15T10:48:40;1.00;;;0.30;;
56201;SDS011;42117;50.360;3.508;2022-10-15T10:53:33;0.50;;;0.50;;
56201;SDS011;42117;50.360;3.508;2022-10-15T10:55:59;0.30;;;0.30;;
56201;SDS011;42117;50.360;3.508;2022-10-15T10:58:26;0.20;;;0.20;;
56201;SDS011;42117;50.360;3.508;2022-10-15T11:00:53;0.25;;;0.25;;
56201;SDS011;42117;50.360;3.508;2022-10-15T11:05:55;0.30;;;0.30;;
56201;SDS011;42117;50.360;3.508;2022-10-15T11:10:56;0.30;;;0.30;;
56201;SDS011;42117;50.360;3.508;2022-10-15T11:13:38;0.38;;;0.20;;
56201;SDS011;42117;50.360;3.508;2022-10-15T11:16:14;0.40;;;0.40;;
56201;SDS011;42117;50.360;3.508;2022-10-15T11:18:47;0.20;;;0.20;;
56201;SDS011;42117;50.360;3.508;2022-10-15T11:21:26;0.73;;;0.40;;
56201;SDS011;42117;50.360;3.508;2022-10-15T11:26:47;1.90;;;0.75;;
56201;SDS011;42117;50.360;3.508;2022-10-15T11:29:17;2.65;;;0.93;;
56201;SDS011;42117;50.360;3.508;2022-10-15T11:37:15;5.60;;;0.85;;
56201;SDS011;42117;50.360;3.508;2022-10-15T11:42:40;1.00;;;0.40;;
56201;SDS011;42117;50.360;3.508;2022-10-15T11:47:43;0.30;;;0.30;;
56201;SDS011;42117;50.360;3.508;2022-10-15T11:55:26;0.25;;;0.25;;
56201;SDS011;42117;50.360;3.508;2022-10-15T11:57:55;2.22;;;0.30;;
56201;SDS011;42117;50.360;3.508;2022-10-15T12:03:13;0.85;;;0.50;;
56201;SDS011;42117;50.360;3.508;2022-10-15T12:05:45;0.60;;;0.40;;
56201;SDS011;42117;50.360;3.508;2022-10-15T12:08:11;2.92;;;0.70;;
56201;SDS011;42117;50.360;3.508;2022-10-15T12:13:08;0.63;;;0.63;;
56201;SDS011;42117;50.360;3.508;2022-10-15T12:18:12;0.63;;;0.60;;
56201;SDS011;42117;50.360;3.508;2022-10-15T12:20:42;2.20;;;0.50;;
56201;SDS011;42117;50.360;3.508;2022-10-15T12:23:54;0.50;;;0.50;;
56201;SDS011;42117;50.360;3.508;2022-10-15T12:25:55;1.85;;;0.68;;
56201;SDS011;42117;50.360;3.508;2022-10-15T12:28:25;5.88;;;0.85;;
56201;SDS011;42117;50.360;3.508;2022-10-15T12:31:02;0.30;;;0.30;;
56201;SDS011;42117;50.360;3.508;2022-10-15T12:33:33;3.13;;;0.70;;
56201;SDS011;42117;50.360;3.508;2022-10-15T12:36:06;7.20;;;1.17;;
56201;SDS011;42117;50.360;3.508;2022-10-15T12:38:35;1.02;;;0.93;;
56201;SDS011;42117;50.360;3.508;2022-10-15T12:43:28;2.90;;;0.75;;
56201;SDS011;42117;50.360;3.508;2022-10-15T12:45:55;3.00;;;0.60;;
56201;SDS011;42117;50.360;3.508;2022-10-15T12:50:51;2.85;;;0.70;;
56201;SDS011;42117;50.360;3.508;2022-10-15T12:53:40;0.88;;;0.80;;
56201;SDS011;42117;50.360;3.508;2022-10-15T12:58:35;9.98;;;1.10;;
56201;SDS011;42117;50.360;3.508;2022-10-15T13:03:34;2.88;;;0.70;;
56201;SDS011;42117;50.360;3.508;2022-10-15T13:11:31;0.30;;;0.30;;
56201;SDS011;42117;50.360;3.508;2022-10-15T13:14:00;0.35;;;0.35;;
56201;SDS011;42117;50.360;3.508;2022-10-15T13:16:27;2.53;;;0.70;;
56201;SDS011;42117;50.360;3.508;2022-10-15T13:18:54;7.63;;;1.00;;
56201;SDS011;42117;50.360;3.508;2022-10-15T13:21:21;0.50;;;0.50;;
56201;SDS011;42117;50.360;3.508;2022-10-15T13:23:48;1.42;;;0.70;;
56201;SDS011;42117;50.360;3.508;2022-10-15T13:26:22;4.32;;;0.68;;
56201;SDS011;42117;50.360;3.508;2022-10-15T13:28:51;1.45;;;0.50;;
56201;SDS011;42117;50.360;3.508;2022-10-15T13:33:52;0.95;;;0.95;;
56201;SDS011;42117;50.360;3.508;2022-10-15T13:36:20;1.17;;;0.50;;
56201;SDS011;42117;50.360;3.508;2022-10-15T13:38:50;3.60;;;0.60;;
56201;SDS011;42117;50.360;3.508;2022-10-15T13:41:21;0.90;;;0.90;;
56201;SDS011;42117;50.360;3.508;2022-10-15T13:43:51;3.10;;;0.55;;
56201;SDS011;42117;50.360;3.508;2022-10-15T13:46:19;0.40;;;0.40;;
56201;SDS011;42117;50.360;3.508;2022-10-15T13:48:47;0.50;;;0.50;;
56201;SDS011;42117;50.360;3.508;2022-10-15T13:51:13;3.60;;;0.40;;
56201;SDS011;42117;50.360;3.508;2022-10-15T13:53:40;18.25;;;1.25;;
56201;SDS011;42117;50.360;3.508;2022-10-15T13:58:45;0.40;;;0.40;;
56201;SDS011;42117;50.360;3.508;2022-10-15T14:01:15;4.25;;;0.70;;
56201;SDS011;42117;50.360;3.508;2022-10-15T14:04:00;0.40;;;0.40;;
56201;SDS011;42117;50.360;3.508;2022-10-15T14:06:27;1.38;;;0.73;;
56201;SDS011;42117;50.360;3.508;2022-10-15T14:08:58;0.30;;;0.30;;
56201;SDS011;42117;50.360;3.508;2022-10-15T14:11:25;0.65;;;0.57;;
56201;SDS011;42117;50.360;3.508;2022-10-15T14:13:53;1.98;;;0.60;;
56201;SDS011;42117;50.360;3.508;2022-10-15T14:16:23;1.20;;;0.65;;
56201;SDS011;42117;50.360;3.508;2022-10-15T14:18:58;9.45;;;0.77;;
56201;SDS011;42117;50.360;3.508;2022-10-15T14:21:32;2.08;;;0.90;;
56201;SDS011;42117;50.360;3.508;2022-10-15T14:24:05;0.60;;;0.57;;
56201;SDS011;42117;50.360;3.508;2022-10-15T14:26:32;2.17;;;0.50;;
56201;SDS011;42117;50.360;3.508;2022-10-15T14:28:58;0.60;;;0.60;;
56201;SDS011;42117;50.360;3.508;2022-10-15T14:31:29;0.65;;;0.47;;
56201;SDS011;42117;50.360;3.508;2022-10-15T14:33:55;0.63;;;0.40;;
56201;SDS011;42117;50.360;3.508;2022-10-15T14:36:22;1.02;;;0.60;;
56201;SDS011;42117;50.360;3.508;2022-10-15T14:38:49;0.50;;;0.50;;
56201;SDS011;42117;50.360;3.508;2022-10-15T14:44:01;1.15;;;0.63;;
56201;SDS011;42117;50.360;3.508;2022-10-15T14:48:53;5.78;;;1.08;;
56201;SDS011;42117;50.360;3.508;2022-10-15T14:51:22;0.52;;;0.47;;
56201;SDS011;42117;50.360;3.508;2022-10-15T14:53:49;0.68;;;0.68;;
56201;SDS011;42117;50.360;3.508;2022-10-15T14:56:21;4.07;;;0.65;;
56201;SDS011;42117;50.360;3.508;2022-10-15T14:58:49;0.68;;;0.65;;
56201;SDS011;42117;50.360;3.508;2022-10-15T15:01:16;0.90;;;0.57;;
56201;SDS011;42117;50.360;3.508;2022-10-15T15:03:47;1.90;;;0.50;;
56201;SDS011;42117;50.360;3.508;2022-10-15T15:06:13;2.80;;;0.50;;
56201;SDS011;42117;50.360;3.508;2022-10-15T15:08:40;1.55;;;0.65;;
56201;SDS011;42117;50.360;3.508;2022-10-15T15:11:06;0.40;;;0.40;;
56201;SDS011;42117;50.360;3.508;2022-10-15T15:13:39;1.75;;;0.60;;
56201;SDS011;42117;50.360;3.508;2022-10-15T15:16:05;3.42;;;1.05;;
56201;SDS011;42117;50.360;3.508;2022-10-15T15:18:31;1.95;;;0.63;;
56201;SDS011;42117;50.360;3.508;2022-10-15T15:21:00;2.92;;;0.70;;
56201;SDS011;42117;50.360;3.508;2022-10-15T15:23:27;0.60;;;0.60;;
56201;SDS011;42117;50.360;3.508;2022-10-15T15:25:54;0.82;;;0.63;;
56201;SDS011;42117;50.360;3.508;2022-10-15T15:28:21;2.85;;;0.50;;
56201;SDS011;42117;50.360;3.508;2022-10-15T15:30:54;0.50;;;0.50;;
56201;SDS011;42117;50.360;3.508;2022-10-15T15:33:20;1.27;;;0.93;;
56201;SDS011;42117;50.360;3.508;2022-10-15T15:35:54;1.75;;;0.40;;
56201;SDS011;42117;50.360;3.508;2022-10-15T15:38:21;0.60;;;0.60;;
56201;SDS011;42117;50.360;3.508;2022-10-15T15:40:50;0.30;;;0.30;;
56201;SDS011;42117;50.360;3.508;2022-10-15T15:43:17;3.23;;;1.13;;
56201;SDS011;42117;50.360;3.508;2022-10-15T15:45:43;3.72;;;0.65;;
56201;SDS011;42117;50.360;3.508;2022-10-15T15:48:10;0.90;;;0.73;;
56201;SDS011;42117;50.360;3.508;2022-10-15T15:50:36;0.70;;;0.40;;
56201;SDS011;42117;50.360;3.508;2022-10-15T15:53:04;0.60;;;0.60;;
56201;SDS011;42117;50.360;3.508;2022-10-15T15:55:30;4.40;;;0.60;;
56201;SDS011;42117;50.360;3.508;2022-10-15T15:57:56;1.17;;;1.10;;
56201;SDS011;42117;50.360;3.508;2022-10-15T16:00:22;0.60;;;0.60;;
56201;SDS011;42117;50.360;3.508;2022-10-15T16:02:48;0.50;;;0.50;;
56201;SDS011;42117;50.360;3.508;2022-10-15T16:05:15;0.85;;;0.60;;
56201;SDS011;42117;50.360;3.508;2022-10-15T16:07:41;1.27;;;0.80;;
56201;SDS011;42117;50.360;3.508;2022-10-15T16:10:08;0.55;;;0.55;;
56201;SDS011;42117;50.360;3.508;2022-10-15T16:12:36;1.30;;;0.63;;
56201;SDS011;42117;50.360;3.508;2022-10-15T16:15:02;1.90;;;1.20;;
56201;SDS011;42117;50.360;3.508;2022-10-15T16:17:28;1.60;;;0.80;;
56201;SDS011;42117;50.360;3.508;2022-10-15T16:19:54;0.55;;;0.50;;
56201;SDS011;42117;50.360;3.508;2022-10-15T16:22:20;0.60;;;0.60;;
56201;SDS011;42117;50.360;3.508;2022-10-15T16:24:46;0.70;;;0.70;;
56201;SDS011;42117;50.360;3.508;2022-10-15T16:27:12;4.78;;;0.80;;
56201;SDS011;42117;50.360;3.508;2022-10-15T16:29:38;0.70;;;0.70;;
56201;SDS011;42117;50.360;3.508;2022-10-15T16:32:04;0.70;;;0.70;;
56201;SDS011;42117;50.360;3.508;2022-10-15T16:34:30;0.73;;;0.73;;
56201;SDS011;42117;50.360;3.508;2022-10-15T16:36:56;1.20;;;1.10;;
56201;SDS011;42117;50.360;3.508;2022-10-15T16:39:22;3.88;;;1.70;;
56201;SDS011;42117;50.360;3.508;2022-10-15T16:41:48;4.90;;;1.75;;